createdAt,value
2023-02-24T00:02:04.147Z,14.30
2023-02-24T00:04:34.091Z,17.60
2023-02-24T00:07:02.891Z,18.30
2023-02-24T00:09:33.229Z,14.10
2023-02-24T00:12:04.840Z,16.50
2023-02-24T00:14:37.900Z,16.80
2023-02-24T00:17:08.336Z,15.00
2023-02-24T00:19:36.688Z,15.50
2023-02-24T00:22:08.319Z,17.20
2023-02-24T00:24:37.921Z,16.20
2023-02-24T00:27:12.723Z,16.40
2023-02-24T00:29:45.118Z,15.40
2023-02-24T00:32:14.846Z,15.70
2023-02-24T00:34:44.656Z,16.10
2023-02-24T00:37:15.457Z,15.10
2023-02-24T00:39:45.700Z,14.60
2023-02-24T00:42:15.451Z,15.30
2023-02-24T00:44:45.176Z,15.80
2023-02-24T00:47:13.711Z,16.60
2023-02-24T00:49:43.451Z,15.40
2023-02-24T00:52:13.945Z,15.90
2023-02-24T00:54:43.469Z,17.20
2023-02-24T00:57:11.717Z,17.60
2023-02-24T00:59:42.448Z,18.60
2023-02-24T01:02:11.454Z,15.00
2023-02-24T01:04:39.978Z,15.20
2023-02-24T01:07:10.977Z,14.90
2023-02-24T01:09:40.439Z,16.30
2023-02-24T01:12:29.351Z,16.80
2023-02-24T01:14:57.614Z,15.60
2023-02-24T01:17:28.645Z,16.50
2023-02-24T01:20:00.897Z,15.90
2023-02-24T01:22:29.337Z,15.60
2023-02-24T01:24:57.562Z,15.90
2023-02-24T01:27:25.636Z,15.80
2023-02-24T01:29:55.490Z,15.60
2023-02-24T01:32:25.659Z,15.20
2023-02-24T01:34:54.161Z,16.70
2023-02-24T01:37:22.376Z,16.20
2023-02-24T01:39:50.687Z,16.80
2023-02-24T01:42:20.559Z,16.50
2023-02-24T01:44:48.930Z,15.40
2023-02-24T01:47:18.273Z,19.40
2023-02-24T01:49:51.949Z,18.20
2023-02-24T01:52:20.995Z,18.00
2023-02-24T01:54:56.357Z,17.50
2023-02-24T01:59:55.477Z,15.70
2023-02-24T02:02:23.759Z,18.00
2023-02-24T02:04:59.992Z,16.30
2023-02-24T02:07:31.614Z,17.80
2023-02-24T02:10:06.472Z,18.00
2023-02-24T02:12:44.113Z,16.00
2023-02-24T02:15:13.685Z,16.20
2023-02-24T02:18:07.502Z,18.20
2023-02-24T02:21:18.843Z,19.80
2023-02-24T02:23:49.999Z,15.60
2023-02-24T02:27:03.537Z,19.90
2023-02-24T02:29:49.286Z,18.40
2023-02-24T02:32:24.509Z,17.60
2023-02-24T02:34:59.262Z,15.80
2023-02-24T02:37:33.045Z,17.10
2023-02-24T02:40:24.621Z,17.30
2023-02-24T02:43:33.009Z,18.10
2023-02-24T02:46:03.831Z,18.10
2023-02-24T02:48:49.242Z,15.00
2023-02-24T02:51:24.793Z,18.20
2023-02-24T02:54:46.107Z,16.00
2023-02-24T02:57:29.037Z,19.60
2023-02-24T03:00:13.998Z,18.60
2023-02-24T03:02:44.503Z,18.20
2023-02-24T03:05:17.469Z,18.70
2023-02-24T03:08:59.576Z,19.50
2023-02-24T03:11:28.236Z,16.10
2023-02-24T03:13:56.649Z,17.60
2023-02-24T03:16:26.670Z,17.40
2023-02-24T03:18:59.396Z,18.30
2023-02-24T03:21:39.864Z,18.50
2023-02-24T03:24:08.049Z,19.00
2023-02-24T03:27:23.076Z,17.90
2023-02-24T03:29:54.145Z,18.00
2023-02-24T03:32:33.764Z,19.10
2023-02-24T03:35:17.057Z,19.40
2023-02-24T03:37:47.227Z,18.60
2023-02-24T03:40:18.344Z,19.00
2023-02-24T03:42:48.986Z,20.30
2023-02-24T03:45:17.864Z,20.70
2023-02-24T03:47:46.846Z,19.00
2023-02-24T03:50:17.781Z,17.30
2023-02-24T03:53:10.136Z,20.20
2023-02-24T03:56:00.591Z,19.40
2023-02-24T03:58:47.201Z,18.40
2023-02-24T04:01:42.222Z,18.00
2023-02-24T04:04:16.977Z,15.20
2023-02-24T04:06:56.361Z,18.70
2023-02-24T04:09:33.215Z,16.40
2023-02-24T04:12:33.033Z,16.70
2023-02-24T04:15:21.253Z,17.30
2023-02-24T04:17:54.789Z,16.20
2023-02-24T04:20:27.960Z,19.50
2023-02-24T04:23:01.809Z,16.90
2023-02-24T04:25:31.067Z,17.20
2023-02-24T04:27:59.755Z,14.60
2023-02-24T04:30:33.528Z,17.20
2023-02-24T04:33:02.303Z,16.20
2023-02-24T04:35:33.096Z,22.10
2023-02-24T04:38:02.833Z,16.60
2023-02-24T04:40:32.736Z,16.40
2023-02-24T04:43:01.148Z,15.70
2023-02-24T04:45:32.815Z,16.20
2023-02-24T04:48:02.086Z,16.40
2023-02-24T04:50:35.469Z,16.90
2023-02-24T04:53:09.465Z,16.60
2023-02-24T04:55:42.597Z,15.20
2023-02-24T04:58:19.331Z,17.20
2023-02-24T05:00:52.822Z,15.10
2023-02-24T05:03:30.055Z,14.60
2023-02-24T05:06:00.226Z,16.90
2023-02-24T05:08:30.657Z,14.50
2023-02-24T05:11:00.936Z,16.30
2023-02-24T05:13:32.117Z,14.30
2023-02-24T05:16:06.367Z,16.20
2023-02-24T05:18:37.024Z,15.50
2023-02-24T05:21:31.385Z,16.60
2023-02-24T05:23:59.700Z,14.40
2023-02-24T05:26:44.495Z,17.50
2023-02-24T05:29:15.008Z,16.60
2023-02-24T05:31:44.133Z,16.60
2023-02-24T05:34:17.053Z,17.30
2023-02-24T05:36:46.633Z,16.50
2023-02-24T05:39:19.265Z,17.90
2023-02-24T05:41:48.683Z,20.70
2023-02-24T05:44:22.862Z,18.40
2023-02-24T05:46:56.782Z,19.10
2023-02-24T05:49:28.605Z,15.70
2023-02-24T05:51:58.060Z,16.30
2023-02-24T05:54:31.253Z,16.20
2023-02-24T05:57:00.694Z,16.50
2023-02-24T05:59:35.204Z,16.70
2023-02-24T06:02:09.498Z,16.60
2023-02-24T06:04:50.805Z,16.50
2023-02-24T06:07:22.934Z,18.80
2023-02-24T06:09:58.601Z,17.80
2023-02-24T06:12:39.965Z,17.00
2023-02-24T06:15:10.843Z,16.80
2023-02-24T06:17:39.551Z,16.70
2023-02-24T06:20:15.684Z,17.10
2023-02-24T06:22:45.103Z,17.30
2023-02-24T06:25:18.628Z,14.80
2023-02-24T06:27:54.206Z,17.00
2023-02-24T06:30:23.498Z,16.40
2023-02-24T06:32:51.980Z,16.20
2023-02-24T06:35:20.473Z,17.10
2023-02-24T06:37:50.954Z,18.60
2023-02-24T06:40:20.059Z,18.00
2023-02-24T06:42:49.750Z,17.80
2023-02-24T06:45:18.983Z,15.20
2023-02-24T06:47:49.995Z,17.10
2023-02-24T06:50:20.242Z,17.20
2023-02-24T06:52:49.296Z,17.40
2023-02-24T06:55:26.969Z,17.40
2023-02-24T06:58:04.151Z,20.30
2023-02-24T07:00:39.850Z,16.50
2023-02-24T07:03:15.924Z,17.20
2023-02-24T07:05:50.262Z,17.90
2023-02-24T07:08:23.114Z,16.70
2023-02-24T07:10:56.078Z,18.80
2023-02-24T07:13:26.220Z,20.00
2023-02-24T07:16:06.984Z,17.70
2023-02-24T07:18:37.416Z,17.80
2023-02-24T07:21:06.273Z,19.80
2023-02-24T07:23:35.101Z,16.00
2023-02-24T07:26:10.201Z,19.70
2023-02-24T07:28:42.590Z,15.30
2023-02-24T07:31:17.195Z,15.40
2023-02-24T07:33:46.671Z,18.40
2023-02-24T07:36:18.343Z,16.20
2023-02-24T07:38:46.610Z,17.70
2023-02-24T07:41:19.992Z,20.00
2023-02-24T07:43:50.806Z,17.20
2023-02-24T07:46:29.401Z,20.30
2023-02-24T07:48:59.854Z,17.20
2023-02-24T07:51:29.462Z,16.90
2023-02-24T07:54:03.261Z,20.00
2023-02-24T07:56:46.051Z,19.40
2023-02-24T07:59:19.393Z,18.90
2023-02-24T08:01:50.273Z,17.40
2023-02-24T08:04:19.642Z,18.50
2023-02-24T08:06:50.342Z,20.60
2023-02-24T08:09:20.787Z,18.40
2023-02-24T08:11:55.337Z,18.20
2023-02-24T08:14:32.735Z,18.90
2023-02-24T08:19:33.391Z,18.20
2023-02-24T08:22:19.953Z,17.00
2023-02-24T08:24:54.468Z,18.90
2023-02-24T08:27:25.879Z,19.40
2023-02-24T08:30:01.701Z,15.90
2023-02-24T08:32:37.072Z,18.40
2023-02-24T08:35:14.972Z,16.80
2023-02-24T08:37:48.363Z,19.90
2023-02-24T08:40:32.188Z,16.70
2023-02-24T08:43:32.989Z,17.40
2023-02-24T08:46:26.702Z,14.20
2023-02-24T08:49:01.126Z,16.10
2023-02-24T08:51:43.741Z,18.20
2023-02-24T08:54:17.182Z,16.20
2023-02-24T08:56:56.170Z,20.20
2023-02-24T08:59:38.347Z,16.20
2023-02-24T09:02:18.758Z,14.90
2023-02-24T09:04:48.794Z,16.50
2023-02-24T09:07:35.369Z,17.80
2023-02-24T09:10:11.636Z,16.80
2023-02-24T09:12:41.483Z,18.40
2023-02-24T09:15:10.804Z,17.80
2023-02-24T09:17:45.419Z,19.50
2023-02-24T09:20:42.745Z,17.60
2023-02-24T09:23:20.332Z,18.10
2023-02-24T09:25:54.292Z,15.20
2023-02-24T09:28:26.748Z,16.40
2023-02-24T09:30:59.385Z,19.10
2023-02-24T09:33:41.380Z,17.10
2023-02-24T09:36:36.838Z,16.50
2023-02-24T09:39:05.010Z,20.70
2023-02-24T09:42:18.889Z,17.80
2023-02-24T09:44:56.210Z,18.00
2023-02-24T09:47:56.293Z,19.80
2023-02-24T09:51:01.653Z,23.60
2023-02-24T09:53:29.618Z,19.30
2023-02-24T09:56:06.195Z,15.10
2023-02-24T09:58:49.562Z,16.30
2023-02-24T10:01:31.089Z,19.60
2023-02-24T10:04:14.973Z,16.00
2023-02-24T10:06:58.779Z,15.50
2023-02-24T10:09:34.477Z,17.00
2023-02-24T10:12:24.167Z,16.30
2023-02-24T10:15:17.125Z,16.90
2023-02-24T10:17:55.536Z,16.70
2023-02-24T10:20:39.864Z,13.40
2023-02-24T10:23:29.923Z,13.80
2023-02-24T10:26:33.401Z,14.90
2023-02-24T10:29:22.799Z,14.80
2023-02-24T10:31:57.972Z,15.50
2023-02-24T10:34:31.939Z,16.50
2023-02-24T10:37:19.342Z,17.60
2023-02-24T10:40:00.005Z,16.30
2023-02-24T10:42:32.335Z,14.60
2023-02-24T10:45:17.317Z,14.00
2023-02-24T10:47:57.472Z,14.30
2023-02-24T10:50:33.859Z,15.60
2023-02-24T10:53:26.788Z,14.60
2023-02-24T10:56:18.864Z,20.30
2023-02-24T10:58:53.011Z,16.30
2023-02-24T11:01:40.891Z,15.60
2023-02-24T11:04:33.274Z,16.80
2023-02-24T11:07:24.567Z,16.70
2023-02-24T11:10:13.880Z,15.40
2023-02-24T11:13:09.922Z,14.10
2023-02-24T11:16:05.275Z,16.50
2023-02-24T11:18:35.088Z,13.90
2023-02-24T11:21:09.539Z,15.10
2023-02-24T11:23:42.668Z,17.40
2023-02-24T11:26:23.705Z,18.10
2023-02-24T11:29:19.964Z,14.90
2023-02-24T11:32:11.609Z,17.20
2023-02-24T11:34:49.736Z,20.20
2023-02-24T11:37:24.401Z,18.50
2023-02-24T11:40:00.203Z,16.10
2023-02-24T11:42:46.238Z,15.20
2023-02-24T11:45:37.924Z,13.60
2023-02-24T11:48:10.431Z,15.20
2023-02-24T11:50:45.075Z,16.10
2023-02-24T11:53:30.248Z,14.40
2023-02-24T11:56:36.940Z,18.20
2023-02-24T11:59:21.303Z,16.80
2023-02-24T12:02:16.624Z,16.70
2023-02-24T12:05:00.689Z,16.60
2023-02-24T12:07:32.982Z,16.00
2023-02-24T12:10:17.121Z,17.60
2023-02-24T12:13:11.558Z,15.30
2023-02-24T12:15:44.162Z,14.50
2023-02-24T12:18:21.019Z,15.90
2023-02-24T12:20:52.975Z,14.60
2023-02-24T12:23:33.165Z,16.50
2023-02-24T12:26:26.193Z,16.70
2023-02-24T12:29:32.800Z,14.90
2023-02-24T12:32:21.092Z,15.50
2023-02-24T12:35:07.057Z,15.60
2023-02-24T12:37:51.126Z,15.90
2023-02-24T12:40:29.813Z,14.70
2023-02-24T12:42:57.857Z,14.00
2023-02-24T12:45:38.757Z,15.00
2023-02-24T12:48:44.642Z,17.40
2023-02-24T12:51:16.396Z,15.00
2023-02-24T12:53:49.430Z,17.10
2023-02-24T12:56:25.821Z,15.40
2023-02-24T12:59:00.511Z,14.10
2023-02-24T13:01:36.307Z,14.50
2023-02-24T13:04:29.103Z,15.60
2023-02-24T13:07:06.739Z,17.40
2023-02-24T13:09:41.926Z,14.50
2023-02-24T13:12:35.006Z,17.80
2023-02-24T13:15:19.578Z,17.80
2023-02-24T13:17:56.398Z,15.80
2023-02-24T13:20:32.165Z,17.60
2023-02-24T13:23:04.970Z,15.70
2023-02-24T13:25:39.472Z,15.30
2023-02-24T13:28:28.085Z,19.10
2023-02-24T13:30:58.550Z,15.50
2023-02-24T13:33:35.214Z,16.70
2023-02-24T13:36:14.208Z,15.30
2023-02-24T13:38:47.461Z,15.40
2023-02-24T13:41:37.472Z,18.80
2023-02-24T13:44:28.132Z,37.10
2023-02-24T13:47:14.579Z,16.90
2023-02-24T13:50:18.906Z,23.30
2023-02-24T13:53:31.415Z,13.40
2023-02-24T13:56:30.045Z,15.10
2023-02-24T13:59:24.072Z,20.00
2023-02-24T14:01:58.943Z,16.50
2023-02-24T14:04:35.382Z,21.20
2023-02-24T14:07:05.415Z,23.70
2023-02-24T14:09:45.332Z,20.10
2023-02-24T14:12:21.901Z,24.30
2023-02-24T14:14:50.185Z,21.60
2023-02-24T14:17:36.249Z,21.60
2023-02-24T14:20:06.802Z,15.10
2023-02-24T14:22:43.601Z,17.40
2023-02-24T14:25:12.172Z,14.80
2023-02-24T14:27:43.362Z,18.30
2023-02-24T14:30:33.526Z,15.60
2023-02-24T14:33:03.585Z,16.90
2023-02-24T14:35:39.078Z,24.40
2023-02-24T14:38:45.746Z,36.30
2023-02-24T14:41:19.699Z,16.50
2023-02-24T14:43:49.297Z,28.30
2023-02-24T14:46:17.460Z,24.90
2023-02-24T14:48:45.843Z,27.20
2023-02-24T14:51:24.993Z,21.00
2023-02-24T14:53:56.784Z,25.50
2023-02-24T14:56:28.870Z,20.30
2023-02-24T14:59:03.629Z,21.30
2023-02-24T15:01:36.685Z,19.90
2023-02-24T15:04:30.356Z,24.30
2023-02-24T15:06:59.162Z,26.90
2023-02-24T15:09:37.660Z,17.80
2023-02-24T15:12:13.540Z,31.40
2023-02-24T15:14:52.650Z,33.40
2023-02-24T15:17:21.736Z,19.10
2023-02-24T15:19:54.667Z,14.90
2023-02-24T15:25:37.190Z,20.40
2023-02-24T15:28:26.818Z,15.40
2023-02-24T15:31:11.472Z,16.20
2023-02-24T15:33:41.731Z,18.30
2023-02-24T15:36:21.914Z,20.60
2023-02-24T15:38:58.599Z,18.10
2023-02-24T15:41:27.010Z,27.10
2023-02-24T15:43:56.292Z,22.90
2023-02-24T15:46:32.432Z,25.60
2023-02-24T15:49:04.525Z,21.30
2023-02-24T15:51:47.384Z,18.80
2023-02-24T15:54:18.844Z,23.30
2023-02-24T15:56:47.692Z,19.50
2023-02-24T15:59:21.205Z,32.70
2023-02-24T16:01:49.508Z,23.80
2023-02-24T16:04:17.799Z,19.20
2023-02-24T16:06:54.810Z,34.20
2023-02-24T16:09:36.335Z,25.30
2023-02-24T16:12:06.807Z,17.70
2023-02-24T16:14:37.813Z,17.90
2023-02-24T16:17:09.151Z,22.20
2023-02-24T16:19:38.954Z,17.60
2023-02-24T16:22:08.928Z,15.90
2023-02-24T16:24:38.348Z,27.70
2023-02-24T16:27:06.857Z,19.80
2023-02-24T16:29:34.933Z,15.90
2023-02-24T16:32:04.421Z,17.50
2023-02-24T16:34:32.738Z,19.30
2023-02-24T16:37:01.502Z,20.80
2023-02-24T16:39:30.179Z,18.20
2023-02-24T16:41:59.432Z,32.60
2023-02-24T16:44:27.535Z,30.20
2023-02-24T16:46:56.537Z,34.30
2023-02-24T16:49:25.537Z,29.30
2023-02-24T16:51:54.001Z,25.80
2023-02-24T16:54:22.600Z,21.50
2023-02-24T16:56:52.134Z,20.00
2023-02-24T16:59:21.711Z,26.50
2023-02-24T17:01:50.445Z,27.50
2023-02-24T17:04:19.114Z,17.50
2023-02-24T17:06:47.652Z,20.90
2023-02-24T17:09:16.063Z,26.60
2023-02-24T17:11:44.688Z,29.80
2023-02-24T17:14:17.178Z,21.20
2023-02-24T17:16:46.208Z,22.70
2023-02-24T17:19:14.774Z,28.50
2023-02-24T17:21:43.889Z,20.90
2023-02-24T17:24:18.964Z,20.80
2023-02-24T17:26:47.473Z,22.20
2023-02-24T17:29:15.888Z,21.10
2023-02-24T17:31:44.555Z,21.70
2023-02-24T17:34:16.690Z,23.70
2023-02-24T17:36:45.934Z,20.50
2023-02-24T17:39:14.232Z,18.50
2023-02-24T17:41:42.501Z,21.20
2023-02-24T17:44:10.793Z,21.80
2023-02-24T17:46:40.472Z,25.50
2023-02-24T17:49:08.912Z,25.40
2023-02-24T17:51:37.442Z,26.50
2023-02-24T17:54:05.899Z,28.30
2023-02-24T17:56:34.379Z,30.00
2023-02-24T17:59:03.271Z,36.80
2023-02-24T18:01:31.548Z,44.80
2023-02-24T18:04:00.972Z,35.80
2023-02-24T18:06:29.323Z,28.20
2023-02-24T18:08:58.833Z,24.60
2023-02-24T18:11:27.200Z,23.10
2023-02-24T18:14:00.426Z,24.90
2023-02-24T18:16:30.685Z,28.20
2023-02-24T18:18:58.892Z,25.80
2023-02-24T18:21:26.993Z,31.90
2023-02-24T18:23:56.179Z,21.00
2023-02-24T18:26:26.291Z,31.30
2023-02-24T18:28:55.808Z,26.40
2023-02-24T18:31:26.970Z,28.80
2023-02-24T18:33:56.399Z,36.30
2023-02-24T18:36:24.852Z,44.80
2023-02-24T18:38:53.448Z,36.80
2023-02-24T18:41:23.451Z,26.70
2023-02-24T18:43:53.024Z,31.20
2023-02-24T18:46:22.269Z,25.80
2023-02-24T18:48:52.829Z,30.30
2023-02-24T18:51:22.375Z,22.50
2023-02-24T18:53:52.803Z,24.10
2023-02-24T18:56:23.625Z,28.80
2023-02-24T18:58:58.412Z,25.10
2023-02-24T19:01:27.800Z,22.40
2023-02-24T19:03:56.506Z,22.50
2023-02-24T19:06:27.012Z,25.60
2023-02-24T19:08:58.747Z,19.70
2023-02-24T19:11:29.056Z,22.70
2023-02-24T19:13:57.969Z,21.30
2023-02-24T19:16:26.444Z,18.30
2023-02-24T19:18:58.591Z,19.90
2023-02-24T19:21:28.107Z,19.20
2023-02-24T19:24:01.006Z,23.20
2023-02-24T19:26:30.194Z,25.00
2023-02-24T19:29:00.806Z,23.90
2023-02-24T19:31:31.147Z,25.60
2023-02-24T19:34:01.881Z,23.30
2023-02-24T19:36:32.021Z,21.20
2023-02-24T19:39:00.329Z,22.50
2023-02-24T19:41:28.508Z,19.00
2023-02-24T19:43:58.728Z,26.20
2023-02-24T19:46:28.764Z,21.80
2023-02-24T19:48:56.834Z,22.90
2023-02-24T19:51:25.538Z,18.20
2023-02-24T19:53:58.687Z,21.60
2023-02-24T19:56:34.093Z,24.70
2023-02-24T19:59:02.967Z,24.90
2023-02-24T20:01:31.501Z,21.60
2023-02-24T20:04:01.906Z,25.50
2023-02-24T20:06:32.264Z,19.80
2023-02-24T20:09:01.835Z,23.60
2023-02-24T20:11:31.030Z,22.50
2023-02-24T20:14:02.064Z,21.70
2023-02-24T20:16:34.919Z,19.40
2023-02-24T20:19:10.092Z,21.50
2023-02-24T20:21:38.985Z,17.30
2023-02-24T20:24:10.130Z,15.60
2023-02-24T20:26:43.315Z,23.90
2023-02-24T20:29:12.931Z,24.30
2023-02-24T20:31:41.419Z,33.90
2023-02-24T20:34:10.757Z,21.60
2023-02-24T20:36:40.984Z,19.40
2023-02-24T20:39:12.408Z,21.90
2023-02-24T20:41:40.805Z,24.10
2023-02-24T20:44:10.528Z,23.50
2023-02-24T20:46:38.904Z,27.10
2023-02-24T20:49:08.979Z,20.30
2023-02-24T20:51:38.055Z,26.80
2023-02-24T20:54:07.598Z,25.20
2023-02-24T20:56:38.043Z,29.20
2023-02-24T20:59:15.247Z,27.70
2023-02-24T21:01:47.069Z,23.00
2023-02-24T21:04:17.344Z,18.50
2023-02-24T21:06:47.815Z,18.00
2023-02-24T21:09:19.666Z,24.90
2023-02-24T21:11:48.302Z,19.20
2023-02-24T21:14:16.791Z,23.00
2023-02-24T21:16:46.176Z,21.20
2023-02-24T21:19:15.114Z,30.10
2023-02-24T21:21:43.491Z,28.00
2023-02-24T21:24:12.995Z,24.60
2023-02-24T21:26:42.494Z,21.90
2023-02-24T21:29:10.693Z,18.50
2023-02-24T21:31:38.885Z,20.50
2023-02-24T21:34:11.520Z,19.00
2023-02-24T21:36:41.514Z,18.00
2023-02-24T21:39:14.633Z,19.00
2023-02-24T21:41:43.039Z,23.30
2023-02-24T21:44:12.248Z,18.90
2023-02-24T21:46:45.762Z,18.10
2023-02-24T21:49:15.514Z,17.50
2023-02-24T21:51:48.938Z,19.50
2023-02-24T21:54:17.646Z,18.60
2023-02-24T21:56:45.700Z,19.60
2023-02-24T21:59:13.984Z,21.00
2023-02-24T22:01:43.032Z,16.10
2023-02-24T22:04:13.202Z,17.00
2023-02-24T22:06:41.740Z,19.20
2023-02-24T22:09:14.291Z,18.60
2023-02-24T22:11:42.643Z,24.40
2023-02-24T22:14:13.589Z,21.60
2023-02-24T22:16:41.928Z,17.30
2023-02-24T22:19:11.472Z,19.20
2023-02-24T22:21:42.445Z,21.00
2023-02-24T22:24:12.934Z,19.00
2023-02-24T22:26:41.221Z,21.40
2023-02-24T22:29:09.985Z,24.80
2023-02-24T22:31:39.147Z,22.90
2023-02-24T22:34:08.857Z,20.50
2023-02-24T22:36:37.447Z,24.90
2023-02-24T22:39:05.749Z,21.80
2023-02-24T22:41:34.448Z,23.10
2023-02-24T22:44:04.023Z,20.30
2023-02-24T22:46:35.736Z,21.10
2023-02-24T22:49:05.556Z,19.30
2023-02-24T22:51:33.974Z,19.20
2023-02-24T22:54:02.226Z,20.80
2023-02-24T22:56:31.182Z,17.70
2023-02-24T22:59:01.640Z,19.00
2023-02-24T23:01:35.080Z,16.70
2023-02-24T23:04:07.256Z,19.60
2023-02-24T23:06:36.517Z,18.20
2023-02-24T23:09:05.156Z,22.90
2023-02-24T23:11:37.524Z,21.30
2023-02-24T23:14:10.085Z,20.60
2023-02-24T23:16:39.027Z,20.50
2023-02-24T23:19:16.969Z,22.10
2023-02-24T23:21:48.220Z,20.90
2023-02-24T23:24:16.872Z,24.70
2023-02-24T23:26:46.643Z,28.40
2023-02-24T23:29:17.439Z,30.40
2023-02-24T23:31:47.681Z,27.30
2023-02-24T23:34:15.986Z,23.50
2023-02-24T23:36:45.921Z,21.40
2023-02-24T23:39:23.060Z,24.20
2023-02-24T23:41:56.862Z,23.00
2023-02-24T23:44:25.768Z,24.00
2023-02-24T23:46:54.136Z,22.70
2023-02-24T23:49:24.132Z,26.50
2023-02-24T23:51:53.078Z,26.40
2023-02-24T23:54:21.248Z,24.50
2023-02-24T23:56:50.624Z,33.90
2023-02-24T23:59:21.671Z,27.00
